sensor_id;sensor_type;location;lat;lon;timestamp;pressure;altitude;pressure_sealevel;temperature;humidity
66887;BME280;67239;51.680;5.976;2023-02-15T00:00:06;102845.16;;;1.12;89.46
66887;BME280;67239;51.680;5.976;2023-02-15T00:02:38;102845.00;;;1.08;89.54
66887;BME280;67239;51.680;5.976;2023-02-15T00:05:05;102834.53;;;1.07;89.61
66887;BME280;67239;51.680;5.976;2023-02-15T00:07:33;102831.00;;;1.05;89.77
66887;BME280;67239;51.680;5.976;2023-02-15T00:10:00;102821.34;;;1.02;89.71
66887;BME280;67239;51.680;5.976;2023-02-15T00:12:27;102833.47;;;1.02;89.97
66887;BME280;67239;51.680;5.976;2023-02-15T00:14:54;102827.31;;;1.00;90.11
66887;BME280;67239;51.680;5.976;2023-02-15T00:17:21;102829.88;;;0.98;90.13
66887;BME280;67239;51.680;5.976;2023-02-15T00:19:48;102823.78;;;0.98;90.08
66887;BME280;67239;51.680;5.976;2023-02-15T00:22:15;102816.88;;;0.98;90.21
66887;BME280;67239;51.680;5.976;2023-02-15T00:24:42;102833.28;;;0.97;90.25
66887;BME280;67239;51.680;5.976;2023-02-15T00:27:09;102834.16;;;0.98;90.32
66887;BME280;67239;51.680;5.976;2023-02-15T00:29:38;102822.06;;;0.98;90.52
66887;BME280;67239;51.680;5.976;2023-02-15T00:32:05;102817.84;;;1.00;90.50
66887;BME280;67239;51.680;5.976;2023-02-15T00:34:33;102826.63;;;1.04;90.72
66887;BME280;67239;51.680;5.976;2023-02-15T00:37:00;102825.88;;;1.06;90.79
66887;BME280;67239;51.680;5.976;2023-02-15T00:39:27;102829.34;;;1.07;90.71
66887;BME280;67239;51.680;5.976;2023-02-15T00:41:55;102822.44;;;1.07;90.74
66887;BME280;67239;51.680;5.976;2023-02-15T00:44:22;102823.31;;;1.08;90.81
66887;BME280;67239;51.680;5.976;2023-02-15T00:46:49;102819.03;;;1.08;90.78
66887;BME280;67239;51.680;5.976;2023-02-15T00:49:16;102819.84;;;1.07;90.82
66887;BME280;67239;51.680;5.976;2023-02-15T00:51:43;102818.06;;;1.06;90.68
66887;BME280;67239;51.680;5.976;2023-02-15T00:54:10;102816.13;;;1.01;90.75
66887;BME280;67239;51.680;5.976;2023-02-15T00:56:37;102810.72;;;0.96;90.84
66887;BME280;67239;51.680;5.976;2023-02-15T00:59:04;102809.59;;;0.89;90.76
66887;BME280;67239;51.680;5.976;2023-02-15T01:01:32;102810.22;;;0.84;90.53
66887;BME280;67239;51.680;5.976;2023-02-15T01:03:59;102805.53;;;0.75;90.44
66887;BME280;67239;51.680;5.976;2023-02-15T01:06:28;102801.03;;;0.71;90.60
66887;BME280;67239;51.680;5.976;2023-02-15T01:08:55;102802.69;;;0.69;90.81
66887;BME280;67239;51.680;5.976;2023-02-15T01:11:22;102806.03;;;0.66;90.84
66887;BME280;67239;51.680;5.976;2023-02-15T01:13:55;102805.03;;;0.63;90.75
66887;BME280;67239;51.680;5.976;2023-02-15T01:16:26;102800.50;;;0.58;90.64
66887;BME280;67239;51.680;5.976;2023-02-15T01:18:55;102794.34;;;0.56;90.90
66887;BME280;67239;51.680;5.976;2023-02-15T01:21:23;102795.13;;;0.54;90.74
66887;BME280;67239;51.680;5.976;2023-02-15T01:23:52;102788.88;;;0.49;90.81
66887;BME280;67239;51.680;5.976;2023-02-15T01:26:20;102783.47;;;0.44;90.63
66887;BME280;67239;51.680;5.976;2023-02-15T01:28:47;102778.00;;;0.38;90.60
66887;BME280;67239;51.680;5.976;2023-02-15T01:31:18;102788.28;;;0.35;90.55
66887;BME280;67239;51.680;5.976;2023-02-15T01:33:47;102785.41;;;0.28;90.60
66887;BME280;67239;51.680;5.976;2023-02-15T01:36:15;102777.56;;;0.27;90.69
66887;BME280;67239;51.680;5.976;2023-02-15T01:38:44;102778.44;;;0.27;90.96
66887;BME280;67239;51.680;5.976;2023-02-15T01:41:12;102774.16;;;0.28;91.05
66887;BME280;67239;51.680;5.976;2023-02-15T01:44:01;102775.78;;;0.26;91.09
66887;BME280;67239;51.680;5.976;2023-02-15T01:46:45;102770.53;;;0.24;91.10
66887;BME280;67239;51.680;5.976;2023-02-15T01:49:20;102766.97;;;0.22;91.27
66887;BME280;67239;51.680;5.976;2023-02-15T01:51:52;102770.34;;;0.20;91.06
66887;BME280;67239;51.680;5.976;2023-02-15T01:54:28;102760.84;;;0.20;91.09
66887;BME280;67239;51.680;5.976;2023-02-15T01:57:00;102759.00;;;0.18;90.92
66887;BME280;67239;51.680;5.976;2023-02-15T01:59:33;102762.41;;;0.17;91.00
66887;BME280;67239;51.680;5.976;2023-02-15T02:02:03;102759.88;;;0.18;91.27
66887;BME280;67239;51.680;5.976;2023-02-15T02:04:49;102756.47;;;0.19;91.47
66887;BME280;67239;51.680;5.976;2023-02-15T02:07:33;102754.78;;;0.20;91.36
66887;BME280;67239;51.680;5.976;2023-02-15T02:10:05;102759.13;;;0.21;91.41
66887;BME280;67239;51.680;5.976;2023-02-15T02:12:35;102762.63;;;0.21;91.44
66887;BME280;67239;51.680;5.976;2023-02-15T02:15:08;102753.94;;;0.21;91.46
66887;BME280;67239;51.680;5.976;2023-02-15T02:24:16;102755.44;;;0.15;91.44
66887;BME280;67239;51.680;5.976;2023-02-15T02:33:24;102744.63;;;0.05;91.44
66887;BME280;67239;51.680;5.976;2023-02-15T02:41:39;102731.50;;;0.02;91.60
66887;BME280;67239;51.680;5.976;2023-02-15T02:44:19;102732.31;;;0.01;91.83
66887;BME280;67239;51.680;5.976;2023-02-15T02:49:38;102724.16;;;-0.09;91.66
66887;BME280;67239;51.680;5.976;2023-02-15T02:52:34;102722.97;;;-0.16;91.55
66887;BME280;67239;51.680;5.976;2023-02-15T02:55:22;102718.41;;;-0.21;91.61
66887;BME280;67239;51.680;5.976;2023-02-15T02:58:05;102721.81;;;-0.22;91.57
66887;BME280;67239;51.680;5.976;2023-02-15T03:00:44;102718.25;;;-0.24;91.66
66887;BME280;67239;51.680;5.976;2023-02-15T03:03:34;102719.03;;;-0.27;91.81
66887;BME280;67239;51.680;5.976;2023-02-15T03:06:09;102712.97;;;-0.27;91.61
66887;BME280;67239;51.680;5.976;2023-02-15T03:08:48;102707.63;;;-0.30;91.68
66887;BME280;67239;51.680;5.976;2023-02-15T03:11:21;102701.38;;;-0.36;91.60
66887;BME280;67239;51.680;5.976;2023-02-15T03:13:49;102696.91;;;-0.38;91.45
66887;BME280;67239;51.680;5.976;2023-02-15T03:16:19;102688.94;;;-0.43;91.52
66887;BME280;67239;51.680;5.976;2023-02-15T03:19:14;102688.88;;;-0.44;91.67
66887;BME280;67239;51.680;5.976;2023-02-15T03:21:48;102690.44;;;-0.48;91.62
66887;BME280;67239;51.680;5.976;2023-02-15T03:24:29;102688.53;;;-0.52;91.54
66887;BME280;67239;51.680;5.976;2023-02-15T03:27:07;102691.88;;;-0.55;91.64
66887;BME280;67239;51.680;5.976;2023-02-15T03:29:48;102695.28;;;-0.56;91.53
66887;BME280;67239;51.680;5.976;2023-02-15T03:32:18;102695.22;;;-0.57;91.62
66887;BME280;67239;51.680;5.976;2023-02-15T03:34:46;102692.63;;;-0.57;91.62
66887;BME280;67239;51.680;5.976;2023-02-15T03:37:20;102693.50;;;-0.57;91.71
66887;BME280;67239;51.680;5.976;2023-02-15T03:39:58;102695.28;;;-0.56;92.06
66887;BME280;67239;51.680;5.976;2023-02-15T03:42:53;102685.72;;;-0.57;91.81
66887;BME280;67239;51.680;5.976;2023-02-15T03:45:31;102685.72;;;-0.57;91.69
66887;BME280;67239;51.680;5.976;2023-02-15T03:48:01;102681.31;;;-0.59;91.71
66887;BME280;67239;51.680;5.976;2023-02-15T03:50:32;102690.66;;;-0.63;91.69
66887;BME280;67239;51.680;5.976;2023-02-15T03:53:22;102682.66;;;-0.68;91.50
66887;BME280;67239;51.680;5.976;2023-02-15T03:55:55;102682.56;;;-0.69;91.44
66887;BME280;67239;51.680;5.976;2023-02-15T03:58:22;102675.63;;;-0.70;91.74
66887;BME280;67239;51.680;5.976;2023-02-15T04:01:13;102671.19;;;-0.73;91.97
66887;BME280;67239;51.680;5.976;2023-02-15T04:04:40;102675.94;;;-0.82;91.76
66887;BME280;67239;51.680;5.976;2023-02-15T04:07:12;102665.38;;;-0.87;91.60
66887;BME280;67239;51.680;5.976;2023-02-15T04:09:39;102661.78;;;-0.90;91.80
66887;BME280;67239;51.680;5.976;2023-02-15T04:12:25;102663.53;;;-0.89;91.90
66887;BME280;67239;51.680;5.976;2023-02-15T04:14:52;102662.72;;;-0.88;91.78
66887;BME280;67239;51.680;5.976;2023-02-15T04:17:38;102666.88;;;-0.92;91.91
66887;BME280;67239;51.680;5.976;2023-02-15T04:20:06;102659.94;;;-0.93;91.90
66887;BME280;67239;51.680;5.976;2023-02-15T04:22:53;102665.16;;;-0.91;91.99
66887;BME280;67239;51.680;5.976;2023-02-15T04:25:39;102660.25;;;-0.85;92.25
66887;BME280;67239;51.680;5.976;2023-02-15T04:28:07;102661.31;;;-0.82;92.49
66887;BME280;67239;51.680;5.976;2023-02-15T04:30:34;102661.38;;;-0.80;92.32
66887;BME280;67239;51.680;5.976;2023-02-15T04:33:02;102659.75;;;-0.78;92.70
66887;BME280;67239;51.680;5.976;2023-02-15T04:35:31;102661.53;;;-0.77;92.58
66887;BME280;67239;51.680;5.976;2023-02-15T04:38:00;102669.41;;;-0.74;92.80
66887;BME280;67239;51.680;5.976;2023-02-15T04:40:27;102672.97;;;-0.72;92.70
66887;BME280;67239;51.680;5.976;2023-02-15T04:42:54;102674.75;;;-0.71;92.83
66887;BME280;67239;51.680;5.976;2023-02-15T04:45:21;102674.81;;;-0.69;92.74
66887;BME280;67239;51.680;5.976;2023-02-15T04:47:48;102672.31;;;-0.68;92.67
66887;BME280;67239;51.680;5.976;2023-02-15T04:50:16;102665.34;;;-0.69;92.81
66887;BME280;67239;51.680;5.976;2023-02-15T04:52:43;102662.81;;;-0.67;92.72
66887;BME280;67239;51.680;5.976;2023-02-15T04:55:10;102660.16;;;-0.69;92.66
66887;BME280;67239;51.680;5.976;2023-02-15T04:57:37;102655.75;;;-0.71;92.82
66887;BME280;67239;51.680;5.976;2023-02-15T05:00:04;102659.97;;;-0.73;92.71
66887;BME280;67239;51.680;5.976;2023-02-15T05:02:35;102662.47;;;-0.75;92.68
66887;BME280;67239;51.680;5.976;2023-02-15T05:05:02;102658.09;;;-0.76;92.68
66887;BME280;67239;51.680;5.976;2023-02-15T05:07:29;102657.97;;;-0.79;92.73
66887;BME280;67239;51.680;5.976;2023-02-15T05:09:56;102656.03;;;-0.83;92.70
66887;BME280;67239;51.680;5.976;2023-02-15T05:12:23;102653.31;;;-0.86;92.57
66887;BME280;67239;51.680;5.976;2023-02-15T05:14:50;102648.00;;;-0.89;92.64
66887;BME280;67239;51.680;5.976;2023-02-15T05:17:17;102638.41;;;-0.92;92.78
66887;BME280;67239;51.680;5.976;2023-02-15T05:19:44;102635.81;;;-0.92;92.89
66887;BME280;67239;51.680;5.976;2023-02-15T05:22:11;102639.22;;;-0.93;92.86
66887;BME280;67239;51.680;5.976;2023-02-15T05:24:38;102638.31;;;-0.94;92.81
66887;BME280;67239;51.680;5.976;2023-02-15T05:27:23;102635.72;;;-0.94;92.83
66887;BME280;67239;51.680;5.976;2023-02-15T05:30:09;102628.84;;;-0.93;93.20
66887;BME280;67239;51.680;5.976;2023-02-15T05:32:38;102626.19;;;-0.95;93.01
66887;BME280;67239;51.680;5.976;2023-02-15T05:35:06;102633.22;;;-0.92;93.11
66887;BME280;67239;51.680;5.976;2023-02-15T05:37:34;102627.13;;;-0.92;93.17
66887;BME280;67239;51.680;5.976;2023-02-15T05:40:01;102632.31;;;-0.92;93.24
66887;BME280;67239;51.680;5.976;2023-02-15T05:42:28;102627.13;;;-0.92;93.18
66887;BME280;67239;51.680;5.976;2023-02-15T05:44:55;102624.59;;;-0.91;93.20
66887;BME280;67239;51.680;5.976;2023-02-15T05:47:22;102624.59;;;-0.91;93.23
66887;BME280;67239;51.680;5.976;2023-02-15T05:49:49;102628.03;;;-0.92;93.25
66887;BME280;67239;51.680;5.976;2023-02-15T05:52:16;102628.91;;;-0.91;93.23
66887;BME280;67239;51.680;5.976;2023-02-15T05:54:43;102616.78;;;-0.92;93.21
66887;BME280;67239;51.680;5.976;2023-02-15T05:57:10;102623.69;;;-0.93;93.34
66887;BME280;67239;51.680;5.976;2023-02-15T05:59:37;102625.47;;;-0.92;93.45
66887;BME280;67239;51.680;5.976;2023-02-15T06:02:04;102633.34;;;-0.89;93.52
66887;BME280;67239;51.680;5.976;2023-02-15T06:04:33;102629.94;;;-0.88;93.53
66887;BME280;67239;51.680;5.976;2023-02-15T06:07:00;102634.09;;;-0.91;93.31
66887;BME280;67239;51.680;5.976;2023-02-15T06:09:27;102632.25;;;-0.94;93.37
66887;BME280;67239;51.680;5.976;2023-02-15T06:11:54;102639.94;;;-0.96;93.40
66887;BME280;67239;51.680;5.976;2023-02-15T06:14:20;102631.25;;;-0.98;93.49
66887;BME280;67239;51.680;5.976;2023-02-15T06:16:48;102642.41;;;-0.99;93.47
66887;BME280;67239;51.680;5.976;2023-02-15T06:19:15;102636.41;;;-0.98;93.77
66887;BME280;67239;51.680;5.976;2023-02-15T06:21:42;102649.38;;;-0.98;93.47
66887;BME280;67239;51.680;5.976;2023-02-15T06:24:09;102645.00;;;-0.99;93.56
66887;BME280;67239;51.680;5.976;2023-02-15T06:26:36;102645.72;;;-1.01;93.71
66887;BME280;67239;51.680;5.976;2023-02-15T06:29:03;102649.22;;;-1.01;93.73
66887;BME280;67239;51.680;5.976;2023-02-15T06:31:30;102649.16;;;-1.02;93.62
66887;BME280;67239;51.680;5.976;2023-02-15T06:33:58;102635.31;;;-1.03;93.71
66887;BME280;67239;51.680;5.976;2023-02-15T06:36:28;102645.59;;;-1.04;93.85
66887;BME280;67239;51.680;5.976;2023-02-15T06:38:56;102640.19;;;-1.09;93.67
66887;BME280;67239;51.680;5.976;2023-02-15T06:41:23;102636.66;;;-1.11;93.88
66887;BME280;67239;51.680;5.976;2023-02-15T06:43:51;102638.22;;;-1.15;93.71
66887;BME280;67239;51.680;5.976;2023-02-15T06:46:18;102641.63;;;-1.16;93.85
66887;BME280;67239;51.680;5.976;2023-02-15T06:48:45;102639.78;;;-1.18;93.96
66887;BME280;67239;51.680;5.976;2023-02-15T06:51:12;102643.19;;;-1.19;93.71
66887;BME280;67239;51.680;5.976;2023-02-15T06:53:39;102638.88;;;-1.19;93.92
66887;BME280;67239;51.680;5.976;2023-02-15T06:56:10;102638.88;;;-1.19;93.94
66887;BME280;67239;51.680;5.976;2023-02-15T06:58:38;102644.06;;;-1.19;93.90
66887;BME280;67239;51.680;5.976;2023-02-15T07:01:07;102635.47;;;-1.18;93.81
66887;BME280;67239;51.680;5.976;2023-02-15T07:03:35;102634.59;;;-1.18;93.77
66887;BME280;67239;51.680;5.976;2023-02-15T07:06:04;102632.06;;;-1.17;93.78
66887;BME280;67239;51.680;5.976;2023-02-15T07:08:35;102625.13;;;-1.18;93.83
66887;BME280;67239;51.680;5.976;2023-02-15T07:11:02;102627.75;;;-1.16;93.78
66887;BME280;67239;51.680;5.976;2023-02-15T07:13:48;102626.97;;;-1.15;93.68
66887;BME280;67239;51.680;5.976;2023-02-15T07:16:15;102621.94;;;-1.12;93.70
66887;BME280;67239;51.680;5.976;2023-02-15T07:18:42;102621.28;;;-1.08;93.73
66887;BME280;67239;51.680;5.976;2023-02-15T07:21:10;102613.63;;;-1.05;93.66
66887;BME280;67239;51.680;5.976;2023-02-15T07:23:38;102622.50;;;-1.00;93.78
66887;BME280;67239;51.680;5.976;2023-02-15T07:26:06;102605.47;;;-0.95;93.83
66887;BME280;67239;51.680;5.976;2023-02-15T07:28:34;102607.53;;;-0.87;94.08
66887;BME280;67239;51.680;5.976;2023-02-15T07:31:04;102601.81;;;-0.80;93.82
66887;BME280;67239;51.680;5.976;2023-02-15T07:33:32;102614.28;;;-0.71;93.90
66887;BME280;67239;51.680;5.976;2023-02-15T07:36:02;102610.38;;;-0.61;94.05
66887;BME280;67239;51.680;5.976;2023-02-15T07:38:33;102603.03;;;-0.52;94.09
66887;BME280;67239;51.680;5.976;2023-02-15T07:41:03;102598.22;;;-0.43;94.09
66887;BME280;67239;51.680;5.976;2023-02-15T07:43:33;102602.03;;;-0.35;94.16
66887;BME280;67239;51.680;5.976;2023-02-15T07:46:09;102599.03;;;-0.24;94.24
66887;BME280;67239;51.680;5.976;2023-02-15T07:48:39;102595.06;;;-0.16;94.05
66887;BME280;67239;51.680;5.976;2023-02-15T07:51:08;102584.25;;;-0.06;94.15
66887;BME280;67239;51.680;5.976;2023-02-15T07:53:38;102593.28;;;0.04;94.11
66887;BME280;67239;51.680;5.976;2023-02-15T07:56:09;102591.97;;;0.14;94.18
66887;BME280;67239;51.680;5.976;2023-02-15T07:58:37;102591.41;;;0.21;93.98
66887;BME280;67239;51.680;5.976;2023-02-15T08:01:19;102592.72;;;0.33;94.37
66887;BME280;67239;51.680;5.976;2023-02-15T08:03:53;102588.75;;;0.42;94.32
66887;BME280;67239;51.680;5.976;2023-02-15T08:06:26;102592.66;;;0.54;94.25
66887;BME280;67239;51.680;5.976;2023-02-15T08:08:56;102582.72;;;0.65;94.46
66887;BME280;67239;51.680;5.976;2023-02-15T08:11:25;102574.50;;;0.76;94.28
66887;BME280;67239;51.680;5.976;2023-02-15T08:14:04;102580.94;;;0.86;94.32
66887;BME280;67239;51.680;5.976;2023-02-15T08:16:46;102580.50;;;0.98;94.38
66887;BME280;67239;51.680;5.976;2023-02-15T08:19:30;102574.84;;;1.08;94.35
66887;BME280;67239;51.680;5.976;2023-02-15T08:22:06;102572.63;;;1.19;94.34
66887;BME280;67239;51.680;5.976;2023-02-15T08:24:37;102573.88;;;1.31;94.46
66887;BME280;67239;51.680;5.976;2023-02-15T08:27:06;102574.28;;;1.42;94.29
66887;BME280;67239;51.680;5.976;2023-02-15T08:29:36;102571.19;;;1.52;94.16
66887;BME280;67239;51.680;5.976;2023-02-15T08:32:09;102561.97;;;1.62;94.11
66887;BME280;67239;51.680;5.976;2023-02-15T08:34:40;102564.88;;;1.71;93.93
66887;BME280;67239;51.680;5.976;2023-02-15T08:37:08;102561.75;;;1.81;94.12
66887;BME280;67239;51.680;5.976;2023-02-15T08:39:36;102560.41;;;1.93;93.69
66887;BME280;67239;51.680;5.976;2023-02-15T08:42:03;102555.50;;;2.02;93.69
66887;BME280;67239;51.680;5.976;2023-02-15T08:44:30;102559.22;;;2.10;93.74
66887;BME280;67239;51.680;5.976;2023-02-15T08:46:57;102553.44;;;2.19;93.54
66887;BME280;67239;51.680;5.976;2023-02-15T08:49:30;102558.22;;;2.32;93.29
66887;BME280;67239;51.680;5.976;2023-02-15T08:51:57;102553.31;;;2.43;93.12
66887;BME280;67239;51.680;5.976;2023-02-15T08:54:24;102556.28;;;2.54;93.05
66887;BME280;67239;51.680;5.976;2023-02-15T08:56:52;102553.16;;;2.66;92.70
66887;BME280;67239;51.680;5.976;2023-02-15T08:59:20;102548.25;;;2.77;92.52
66887;BME280;67239;51.680;5.976;2023-02-15T09:01:50;102548.66;;;2.91;92.48
66887;BME280;67239;51.680;5.976;2023-02-15T09:04:19;102542.97;;;3.04;92.16
66887;BME280;67239;51.680;5.976;2023-02-15T09:06:48;102543.31;;;3.17;91.65
66887;BME280;67239;51.680;5.976;2023-02-15T09:09:16;102539.22;;;3.26;91.39
66887;BME280;67239;51.680;5.976;2023-02-15T09:11:47;102541.22;;;3.37;91.02
66887;BME280;67239;51.680;5.976;2023-02-15T09:14:23;102531.94;;;3.47;90.79
66887;BME280;67239;51.680;5.976;2023-02-15T09:16:52;102533.97;;;3.58;90.37
66887;BME280;67239;51.680;5.976;2023-02-15T09:19:21;102532.53;;;3.70;90.14
66887;BME280;67239;51.680;5.976;2023-02-15T09:21:49;102531.06;;;3.81;89.87
66887;BME280;67239;51.680;5.976;2023-02-15T09:24:17;102534.84;;;3.94;89.67
66887;BME280;67239;51.680;5.976;2023-02-15T09:26:46;102539.50;;;4.06;89.21
66887;BME280;67239;51.680;5.976;2023-02-15T09:29:16;102537.16;;;4.17;89.00
66887;BME280;67239;51.680;5.976;2023-02-15T09:31:46;102529.59;;;4.29;88.97
66887;BME280;67239;51.680;5.976;2023-02-15T09:34:18;102532.50;;;4.42;88.60
66887;BME280;67239;51.680;5.976;2023-02-15T09:36:47;102535.34;;;4.53;88.70
66887;BME280;67239;51.680;5.976;2023-02-15T09:39:17;102538.16;;;4.63;88.30
66887;BME280;67239;51.680;5.976;2023-02-15T09:47:53;102525.59;;;4.87;87.29
66887;BME280;67239;51.680;5.976;2023-02-15T09:54:22;102518.22;;;5.10;86.35
66887;BME280;67239;51.680;5.976;2023-02-15T09:57:10;102525.38;;;5.19;85.97
66887;BME280;67239;51.680;5.976;2023-02-15T10:00:13;102524.72;;;5.32;86.04
66887;BME280;67239;51.680;5.976;2023-02-15T10:09:30;102519.28;;;5.70;84.76
66887;BME280;67239;51.680;5.976;2023-02-15T10:12:22;102518.63;;;5.84;84.60
66887;BME280;67239;51.680;5.976;2023-02-15T10:15:15;102518.00;;;5.97;83.97
66887;BME280;67239;51.680;5.976;2023-02-15T10:18:55;102514.81;;;6.15;83.66
66887;BME280;67239;51.680;5.976;2023-02-15T10:24:54;102510.81;;;6.41;83.61
66887;BME280;67239;51.680;5.976;2023-02-15T10:27:35;102504.84;;;6.52;83.33
66887;BME280;67239;51.680;5.976;2023-02-15T10:30:15;102514.66;;;6.67;82.44
66887;BME280;67239;51.680;5.976;2023-02-15T10:33:00;102510.38;;;6.77;81.44
66887;BME280;67239;51.680;5.976;2023-02-15T10:35:46;102510.47;;;6.85;81.80
66887;BME280;67239;51.680;5.976;2023-02-15T10:38:48;102506.25;;;6.95;80.39
66887;BME280;67239;51.680;5.976;2023-02-15T10:50:51;102507.47;;;7.33;81.02
66887;BME280;67239;51.680;5.976;2023-02-15T10:56:25;102499.81;;;7.51;80.67
66887;BME280;67239;51.680;5.976;2023-02-15T10:59:16;102494.59;;;7.56;81.03
66887;BME280;67239;51.680;5.976;2023-02-15T11:08:23;102492.19;;;7.82;79.69
66887;BME280;67239;51.680;5.976;2023-02-15T11:10:54;102501.03;;;7.93;79.76
66887;BME280;67239;51.680;5.976;2023-02-15T11:13:34;102494.09;;;8.05;79.80
66887;BME280;67239;51.680;5.976;2023-02-15T11:16:18;102489.81;;;8.18;79.69
66887;BME280;67239;51.680;5.976;2023-02-15T11:19:02;102494.25;;;8.31;79.47
66887;BME280;67239;51.680;5.976;2023-02-15T11:21:43;102489.94;;;8.43;78.96
66887;BME280;67239;51.680;5.976;2023-02-15T11:24:16;102489.16;;;8.54;78.48
66887;BME280;67239;51.680;5.976;2023-02-15T11:26:54;102483.06;;;8.68;78.19
66887;BME280;67239;51.680;5.976;2023-02-15T11:29:40;102482.25;;;8.80;77.67
66887;BME280;67239;51.680;5.976;2023-02-15T11:32:21;102485.78;;;8.94;77.40
66887;BME280;67239;51.680;5.976;2023-02-15T11:34:58;102470.91;;;9.07;77.19
66887;BME280;67239;51.680;5.976;2023-02-15T11:37:44;102477.09;;;9.25;76.50
66887;BME280;67239;51.680;5.976;2023-02-15T11:40:36;102467.47;;;9.41;75.97
66887;BME280;67239;51.680;5.976;2023-02-15T11:43:17;102460.44;;;9.54;75.57
66887;BME280;67239;51.680;5.976;2023-02-15T11:45:51;102456.03;;;9.70;74.98
66887;BME280;67239;51.680;5.976;2023-02-15T11:48:18;102451.63;;;9.86;74.84
66887;BME280;67239;51.680;5.976;2023-02-15T11:50:45;102451.59;;;10.00;74.33
66887;BME280;67239;51.680;5.976;2023-02-15T11:53:21;102444.53;;;10.13;73.38
66887;BME280;67239;51.680;5.976;2023-02-15T11:55:54;102436.59;;;10.25;73.61
66887;BME280;67239;51.680;5.976;2023-02-15T11:58:40;102439.22;;;10.39;73.84
66887;BME280;67239;51.680;5.976;2023-02-15T12:01:30;102433.03;;;10.49;73.65
66887;BME280;67239;51.680;5.976;2023-02-15T12:07:03;102423.22;;;10.75;73.14
66887;BME280;67239;51.680;5.976;2023-02-15T12:12:31;102415.97;;;11.08;70.73
66887;BME280;67239;51.680;5.976;2023-02-15T12:15:08;102410.53;;;11.25;70.76
66887;BME280;67239;51.680;5.976;2023-02-15T12:17:40;102396.34;;;11.40;71.76
66887;BME280;67239;51.680;5.976;2023-02-15T12:22:58;102389.81;;;11.76;69.44
66887;BME280;67239;51.680;5.976;2023-02-15T12:25:35;102394.94;;;11.95;68.23
66887;BME280;67239;51.680;5.976;2023-02-15T12:28:19;102384.22;;;12.07;66.66
66887;BME280;67239;51.680;5.976;2023-02-15T12:30:53;102363.00;;;12.15;66.37
66887;BME280;67239;51.680;5.976;2023-02-15T12:33:27;102369.06;;;12.23;65.39
66887;BME280;67239;51.680;5.976;2023-02-15T12:36:10;102364.56;;;12.30;64.08
66887;BME280;67239;51.680;5.976;2023-02-15T12:38:42;102368.06;;;12.32;63.69
66887;BME280;67239;51.680;5.976;2023-02-15T12:41:25;102375.88;;;12.41;63.75
66887;BME280;67239;51.680;5.976;2023-02-15T12:46:40;102367.72;;;12.58;63.82
66887;BME280;67239;51.680;5.976;2023-02-15T12:49:19;102369.31;;;12.67;64.46
66887;BME280;67239;51.680;5.976;2023-02-15T12:54:22;102366.56;;;12.75;64.28
66887;BME280;67239;51.680;5.976;2023-02-15T12:56:58;102371.88;;;12.75;64.43
66887;BME280;67239;51.680;5.976;2023-02-15T12:59:25;102373.59;;;12.79;64.21
66887;BME280;67239;51.680;5.976;2023-02-15T13:01:53;102367.41;;;12.79;62.89
66887;BME280;67239;51.680;5.976;2023-02-15T13:04:21;102355.00;;;12.82;63.41
66887;BME280;67239;51.680;5.976;2023-02-15T13:06:56;102362.84;;;12.88;63.42
66887;BME280;67239;51.680;5.976;2023-02-15T13:09:36;102356.59;;;12.94;63.72
66887;BME280;67239;51.680;5.976;2023-02-15T13:12:21;102352.94;;;13.01;62.86
66887;BME280;67239;51.680;5.976;2023-02-15T13:14:51;102347.63;;;13.01;62.56
66887;BME280;67239;51.680;5.976;2023-02-15T13:17:26;102343.97;;;13.09;62.96
66887;BME280;67239;51.680;5.976;2023-02-15T13:20:02;102340.34;;;13.16;63.14
66887;BME280;67239;51.680;5.976;2023-02-15T13:22:40;102342.88;;;13.22;62.79
66887;BME280;67239;51.680;5.976;2023-02-15T13:25:14;102334.03;;;13.23;60.73
66887;BME280;67239;51.680;5.976;2023-02-15T13:27:50;102334.00;;;13.26;60.96
66887;BME280;67239;51.680;5.976;2023-02-15T13:30:31;102327.81;;;13.27;62.17
66887;BME280;67239;51.680;5.976;2023-02-15T13:33:08;102330.38;;;13.32;62.21
66887;BME280;67239;51.680;5.976;2023-02-15T13:35:50;102327.59;;;13.40;61.62
66887;BME280;67239;51.680;5.976;2023-02-15T13:38:49;102326.50;;;13.50;60.51
66887;BME280;67239;51.680;5.976;2023-02-15T13:47:50;102315.00;;;13.53;59.80
66887;BME280;67239;51.680;5.976;2023-02-15T13:50:45;102296.50;;;13.49;59.76
66887;BME280;67239;51.680;5.976;2023-02-15T13:59:05;102290.50;;;13.40;58.68
66887;BME280;67239;51.680;5.976;2023-02-15T14:10:00;102269.72;;;13.16;58.50
66887;BME280;67239;51.680;5.976;2023-02-15T14:15:19;102279.47;;;13.14;59.38
66887;BME280;67239;51.680;5.976;2023-02-15T14:24:24;102287.22;;;13.25;60.34
66887;BME280;67239;51.680;5.976;2023-02-15T14:30:46;102290.63;;;13.32;60.80
66887;BME280;67239;51.680;5.976;2023-02-15T14:33:41;102294.09;;;13.35;60.49
66887;BME280;67239;51.680;5.976;2023-02-15T14:36:18;102293.19;;;13.35;60.31
66887;BME280;67239;51.680;5.976;2023-02-15T14:42:20;102288.88;;;13.31;60.38
66887;BME280;67239;51.680;5.976;2023-02-15T14:45:04;102287.22;;;13.25;60.37
66887;BME280;67239;51.680;5.976;2023-02-15T14:47:39;102292.56;;;13.22;60.02
66887;BME280;67239;51.680;5.976;2023-02-15T14:50:43;102286.53;;;13.14;59.97
66887;BME280;67239;51.680;5.976;2023-02-15T14:53:20;102281.31;;;13.09;60.21
66887;BME280;67239;51.680;5.976;2023-02-15T14:56:05;102288.50;;;13.02;60.29
66887;BME280;67239;51.680;5.976;2023-02-15T15:01:28;102286.06;;;12.92;60.76
66887;BME280;67239;51.680;5.976;2023-02-15T15:04:02;102293.16;;;12.88;60.66
66887;BME280;67239;51.680;5.976;2023-02-15T15:06:37;102297.66;;;12.83;60.62
66887;BME280;67239;51.680;5.976;2023-02-15T15:09:20;102306.53;;;12.79;60.94
66887;BME280;67239;51.680;5.976;2023-02-15T15:11:53;102310.16;;;12.74;61.01
66887;BME280;67239;51.680;5.976;2023-02-15T15:17:02;102312.06;;;12.65;60.87
66887;BME280;67239;51.680;5.976;2023-02-15T15:22:20;102316.63;;;12.55;61.50
66887;BME280;67239;51.680;5.976;2023-02-15T15:24:56;102320.22;;;12.48;61.54
66887;BME280;67239;51.680;5.976;2023-02-15T15:41:42;102294.34;;;12.07;62.35